Time;durP1;ratioP1;P1;durP2;ratioP2;P2;SDS_P1;SDS_P2;PMS_P1;PMS_P2;Temp;Humidity;BMP_temperature;BMP_pressure;BME280_temperature;BME280_humidity;BME280_pressure;Samples;Min_cycle;Max_cycle;Signal;HPM_P1;HPM_P2
2022/11/24 00:00:05;;;;;;;9.10;6.50;;;17.60;76.80;;;18.20;42.87;97763.22;5030379;28;20053;-74
2022/11/24 00:02:31;;;;;;;11.55;7.32;;;17.60;76.80;;;18.23;42.59;97757.81;5028768;28;20052;-74
2022/11/24 00:04:57;;;;;;;10.00;7.10;;;17.60;76.20;;;18.30;42.56;97756.44;5014013;28;20400;-74
2022/11/24 00:07:23;;;;;;;10.40;7.45;;;17.60;76.70;;;18.27;42.65;97760.69;5030102;28;20037;-74
2022/11/24 00:09:49;;;;;;;11.95;7.15;;;17.60;77.00;;;18.31;42.77;97758.81;4995262;28;20110;-74
2022/11/24 00:12:15;;;;;;;7.43;6.28;;;17.50;77.00;;;18.30;42.52;97765.47;5028114;28;20037;-74
2022/11/24 00:14:41;;;;;;;9.30;7.25;;;17.60;77.10;;;18.32;42.41;97763.19;4997651;28;20515;-74
2022/11/24 00:17:08;;;;;;;9.02;7.00;;;17.50;76.90;;;18.37;42.50;97768.41;5029423;28;20038;-74
2022/11/24 00:19:33;;;;;;;10.18;7.53;;;17.50;76.90;;;18.38;42.40;97774.69;5025999;28;20499;-74
2022/11/24 00:22:03;;;;;;;8.95;7.15;;;17.50;76.90;;;18.38;42.31;97775.50;5015264;28;20500;-74
2022/11/24 00:24:29;;;;;;;7.85;6.43;;;17.50;77.10;;;18.46;42.45;97773.75;5030273;28;20840;-74
2022/11/24 00:26:55;;;;;;;9.18;6.15;;;17.60;77.30;;;18.47;42.27;97780.03;5025342;28;20044;-74
2022/11/24 00:29:21;;;;;;;9.20;6.38;;;17.60;77.20;;;18.54;42.11;97778.28;5005750;28;20042;-74
2022/11/24 00:31:47;;;;;;;11.02;6.97;;;17.60;77.10;;;18.50;42.17;97784.84;5029416;28;20099;-74
2022/11/24 00:34:13;;;;;;;10.18;6.85;;;17.60;76.90;;;18.56;42.12;97783.44;5011930;28;20042;-74
2022/11/24 00:36:40;;;;;;;10.55;7.28;;;17.60;76.80;;;18.56;42.27;97786.16;4996929;28;20668;-74
2022/11/24 00:39:10;;;;;;;8.98;7.55;;;17.60;77.00;;;18.58;42.12;97781.13;5028836;28;20049;-74
2022/11/24 00:41:36;;;;;;;8.10;6.18;;;17.70;77.10;;;18.67;42.11;97784.50;5026619;28;20041;-74
2022/11/24 00:44:02;;;;;;;9.45;7.00;;;17.70;77.00;;;18.65;42.10;97787.63;5028560;28;20465;-74
2022/11/24 00:46:29;;;;;;;8.82;6.70;;;17.70;76.90;;;18.66;42.04;97788.41;5027608;28;20447;-74
2022/11/24 00:48:55;;;;;;;13.00;7.93;;;17.70;76.90;;;18.72;41.97;97786.19;5028156;28;20376;-74
2022/11/24 00:51:25;;;;;;;8.32;6.57;;;17.70;77.80;;;18.68;41.88;97790.81;5011672;28;20060;-74
2022/11/24 00:53:52;;;;;;;12.18;7.28;;;17.60;76.90;;;18.76;41.92;97792.63;5029213;28;20077;-74
2022/11/24 00:56:18;;;;;;;9.13;6.63;;;17.70;77.00;;;18.82;41.88;97791.19;5026989;28;20361;-74
2022/11/24 00:58:44;;;;;;;9.27;6.63;;;17.80;77.30;;;18.80;42.01;97788.00;5011588;28;20041;-74
2022/11/24 01:01:15;;;;;;;9.00;6.32;;;17.80;77.20;;;18.85;41.72;97788.56;5029037;28;20075;-73
2022/11/24 01:03:42;;;;;;;9.93;6.82;;;17.80;76.90;;;18.87;41.80;97794.47;5026299;28;20124;-74
2022/11/24 01:06:20;;;;;;;10.77;7.00;;;17.80;76.80;;;18.89;41.85;97796.09;5026813;28;20061;-74
2022/11/24 01:08:46;;;;;;;10.00;7.22;;;17.80;76.60;;;18.92;41.60;97795.38;5009643;28;20105;-74
2022/11/24 01:11:16;;;;;;;9.20;6.82;;;17.80;76.70;;;18.92;41.83;97801.66;5025742;28;20132;-74
2022/11/24 01:13:45;;;;;;;10.23;6.72;;;17.90;76.80;;;18.99;41.57;97801.06;5023124;28;20045;-74
2022/11/24 01:16:26;;;;;;;8.40;6.38;;;17.90;77.00;;;19.00;41.61;97802.66;5023009;28;20809;-74
2022/11/24 01:18:52;;;;;;;11.43;7.70;;;18.00;76.80;;;19.03;41.70;97804.69;5014558;28;20508;-74
2022/11/24 01:21:20;;;;;;;10.15;6.50;;;17.90;76.40;;;19.03;41.60;97813.75;5007604;28;20090;-74
2022/11/24 01:23:46;;;;;;;8.45;6.63;;;18.00;76.50;;;19.06;41.58;97809.50;5025986;28;20102;-74
2022/11/24 01:26:15;;;;;;;9.75;6.53;;;18.00;76.50;;;19.11;41.58;97814.75;5024297;28;20041;-73
2022/11/24 01:28:41;;;;;;;8.85;6.50;;;18.10;76.60;;;19.09;41.50;97808.78;5028810;28;20045;-74
2022/11/24 01:31:08;;;;;;;10.10;6.95;;;18.00;76.70;;;19.16;41.49;97806.22;5024812;28;20448;-74
2022/11/24 01:33:34;;;;;;;9.70;6.20;;;18.10;76.60;;;19.23;41.53;97814.66;4996007;28;20041;-74
2022/11/24 01:36:01;;;;;;;9.82;6.70;;;18.20;76.70;;;19.21;41.35;97811.47;5011835;28;20071;-74
2022/11/24 01:38:27;;;;;;;9.13;6.43;;;18.10;76.60;;;19.25;41.49;97800.53;5030902;28;20045;-74
2022/11/24 01:41:15;;;;;;;8.93;6.50;;;18.10;76.60;;;19.26;41.42;97802.94;5009545;28;20045;-74
2022/11/24 01:43:42;;;;;;;9.48;6.80;;;18.20;76.70;;;19.29;41.43;97810.47;5026593;28;20072;-74
2022/11/24 01:46:32;;;;;;;8.45;6.30;;;18.20;76.70;;;19.35;41.31;97805.50;5028695;28;20037;-74
2022/11/24 01:49:07;;;;;;;10.32;6.35;;;18.20;76.70;;;19.38;41.26;97812.25;5027210;28;20056;-74
2022/11/24 01:51:49;;;;;;;12.60;7.00;;;18.20;76.70;;;19.40;41.29;97815.44;5043526;28;20064;-75
2022/11/24 01:54:26;;;;;;;10.80;7.15;;;18.20;76.70;;;19.45;41.22;97821.47;5028483;28;20045;-74
2022/11/24 01:56:55;;;;;;;9.85;7.50;;;18.30;76.80;;;19.45;41.18;97832.47;5023566;28;20042;-74
2022/11/24 01:59:21;;;;;;;7.93;6.40;;;18.30;76.80;;;19.47;41.36;97829.38;5026987;28;20080;-75
2022/11/24 02:01:48;;;;;;;9.63;6.72;;;18.30;76.80;;;19.49;41.05;97840.81;5027810;28;20401;-74
2022/11/24 02:04:16;;;;;;;7.88;6.32;;;18.30;76.80;;;19.47;41.24;97832.13;5027469;28;20046;-74
2022/11/24 02:06:42;;;;;;;9.00;6.15;;;18.40;76.90;;;19.51;40.95;97833.81;5027100;28;20053;-74
2022/11/24 02:09:25;;;;;;;9.73;6.95;;;18.40;76.80;;;19.53;41.09;97827.94;5028080;28;20091;-74
2022/11/24 02:11:51;;;;;;;8.30;6.13;;;18.40;76.80;;;19.56;40.96;97829.97;5025323;28;20057;-74
2022/11/24 02:14:17;;;;;;;9.13;6.68;;;18.40;77.40;;;19.57;41.01;97830.78;5025652;28;20076;-74
2022/11/24 02:16:48;;;;;;;7.97;6.70;;;18.50;76.70;;;19.62;41.12;97839.56;5012617;28;20042;-74
2022/11/24 02:19:30;;;;;;;9.32;6.32;;;18.50;76.60;;;19.63;41.02;97829.34;5027558;28;20079;-75
2022/11/24 02:21:56;;;;;;;9.13;6.00;;;18.50;76.90;;;19.61;41.11;97840.69;5026678;28;20045;-74
2022/11/24 02:24:58;;;;;;;12.23;7.18;;;18.40;76.80;;;19.62;41.31;97839.56;4995594;28;20513;-74
2022/11/24 02:27:25;;;;;;;10.98;7.45;;;18.50;76.70;;;19.66;41.15;97834.13;5023641;28;20050;-74
2022/11/24 02:29:51;;;;;;;8.32;6.18;;;18.50;76.70;;;19.67;40.99;97842.06;5026482;28;20054;-74
2022/11/24 02:32:17;;;;;;;8.65;5.80;;;18.50;76.80;;;19.69;41.06;97845.25;5028056;28;20657;-74
2022/11/24 02:34:43;;;;;;;7.47;6.18;;;18.50;76.90;;;19.68;41.02;97840.91;5015442;28;20037;-75
2022/11/24 02:37:10;;;;;;;8.02;6.30;;;18.50;76.90;;;19.69;41.02;97839.75;5023596;28;20115;-75
2022/11/24 02:39:36;;;;;;;9.88;6.38;;;18.50;76.60;;;19.69;41.14;97834.25;5031976;28;20048;-74
2022/11/24 02:42:08;;;;;;;8.18;5.95;;;18.60;76.70;;;19.71;40.93;97836.63;5031263;28;20391;-74
2022/11/24 02:44:41;;;;;;;9.30;6.65;;;18.60;76.60;;;19.75;40.97;97836.72;5028284;28;20045;-74
2022/11/24 02:47:09;;;;;;;8.02;5.43;;;18.60;76.40;;;19.75;40.88;97837.53;5014938;28;20045;-75
2022/11/24 02:49:35;;;;;;;9.40;6.15;;;18.60;76.50;;;19.78;41.07;97836.00;5031429;28;20041;-75
2022/11/24 02:52:02;;;;;;;9.38;5.90;;;18.60;76.80;;;19.76;40.83;97833.59;5014478;28;20052;-75
2022/11/24 02:54:28;;;;;;;8.90;5.90;;;18.60;76.70;;;19.77;41.12;97834.41;5030652;28;20136;-74
2022/11/24 02:56:55;;;;;;;8.68;5.97;;;18.70;76.60;;;19.79;41.08;97834.84;5014730;28;20393;-74
2022/11/24 02:59:21;;;;;;;8.00;5.53;;;18.70;76.50;;;19.74;40.93;97833.16;4998609;28;20045;-74
2022/11/24 03:01:47;;;;;;;7.05;5.20;;;18.70;76.30;;;19.77;40.82;97839.91;5014928;28;20041;-74
2022/11/24 03:04:13;;;;;;;10.10;6.18;;;18.70;76.30;;;19.79;41.02;97843.09;5030583;28;20502;-74
2022/11/24 03:06:39;;;;;;;9.27;6.57;;;18.60;76.40;;;19.77;41.16;97846.22;5012923;28;20153;-74
2022/11/24 03:09:05;;;;;;;7.03;5.70;;;18.70;76.70;;;19.80;41.03;97845.50;4998689;28;20050;-74
2022/11/24 03:11:31;;;;;;;8.88;6.35;;;18.70;76.70;;;19.73;41.04;97840.63;5035995;28;20045;-74
2022/11/24 03:13:57;;;;;;;8.65;5.88;;;18.60;76.60;;;19.82;40.95;97839.63;5029131;28;20046;-74
2022/11/24 03:16:24;;;;;;;7.10;5.25;;;18.60;76.40;;;19.79;40.80;97843.88;5019962;28;20033;-74
2022/11/24 03:18:51;;;;;;;9.07;6.80;;;18.70;76.30;;;19.80;41.09;97836.47;5031333;28;20064;-74
2022/11/24 03:21:17;;;;;;;8.50;5.95;;;18.70;76.50;;;19.80;41.02;97834.50;5032373;28;20057;-75
2022/11/24 03:23:43;;;;;;;9.48;6.38;;;18.70;76.60;;;19.81;41.17;97835.28;5028949;28;20037;-75
2022/11/24 03:26:12;;;;;;;7.72;6.32;;;18.70;76.70;;;19.77;41.03;97831.66;5014611;28;20500;-75
2022/11/24 03:28:38;;;;;;;6.50;5.82;;;18.70;76.50;;;19.78;40.81;97825.00;4998187;28;20045;-75
2022/11/24 03:31:06;;;;;;;11.18;6.70;;;18.70;76.40;;;19.81;41.02;97832.53;5014404;28;20076;-74
2022/11/24 03:33:32;;;;;;;9.80;6.15;;;18.70;76.30;;;19.76;41.10;97835.56;5030337;28;20517;-74
2022/11/24 03:35:59;;;;;;;8.43;5.88;;;18.70;76.40;;;19.78;41.00;97845.06;5013358;28;20042;-74
2022/11/24 03:38:25;;;;;;;7.65;6.00;;;18.70;76.60;;;19.80;41.21;97847.47;5014137;28;20408;-74
2022/11/24 03:40:51;;;;;;;8.18;5.65;;;18.70;76.70;;;19.83;41.19;97849.50;5013652;28;20048;-74
2022/11/24 03:43:18;;;;;;;7.03;5.55;;;18.70;76.60;;;19.83;40.93;97844.00;5014405;28;20041;-74
2022/11/24 03:45:47;;;;;;;8.57;6.07;;;18.70;76.50;;;19.79;41.02;97845.84;5012037;28;20033;-74
2022/11/24 03:48:15;;;;;;;6.63;5.88;;;18.70;76.30;;;19.78;40.90;97844.25;4996747;28;20033;-74
2022/11/24 03:50:41;;;;;;;7.80;6.05;;;18.80;76.20;;;19.77;40.92;97848.16;5030757;28;20455;-74
2022/11/24 03:53:07;;;;;;;7.03;6.32;;;18.80;76.10;;;19.77;40.97;97848.16;5015126;28;20029;-74
2022/11/24 03:55:34;;;;;;;6.88;5.78;;;18.80;76.10;;;19.78;40.88;97849.78;5016249;28;20079;-74
2022/11/24 03:58:00;;;;;;;9.75;6.97;;;18.80;76.00;;;19.79;40.55;97851.34;5013285;28;20041;-74
2022/11/24 04:00:26;;;;;;;7.05;6.03;;;18.70;75.70;;;19.79;40.62;97856.84;4996871;28;20045;-74
2022/11/24 04:02:53;;;;;;;7.65;5.78;;;18.70;75.70;;;19.80;40.77;97861.22;5011023;28;20042;-74
2022/11/24 04:05:19;;;;;;;9.15;6.90;;;18.70;76.00;;;19.80;40.50;97852.97;5013934;28;20077;-74
2022/11/24 04:07:45;;;;;;;6.68;5.60;;;18.70;76.10;;;19.80;40.83;97855.72;5029529;28;20038;-74
2022/11/24 04:10:12;;;;;;;9.05;6.43;;;18.70;75.90;;;19.77;40.71;97856.41;4996659;28;20042;-74
2022/11/24 04:12:44;;;;;;;9.00;6.05;;;18.80;75.70;;;19.76;40.72;97854.81;5028051;28;20046;-75
2022/11/24 04:15:16;;;;;;;9.25;6.45;;;18.80;75.60;;;19.74;40.49;97860.69;5048071;28;20033;-74
2022/11/24 04:17:43;;;;;;;;;;;18.80;75.40;;;19.76;40.42;97865.84;5031831;28;20041;-74
2022/11/24 04:20:10;;;;;;;7.07;5.30;;;18.70;75.40;;;19.76;40.70;97866.63;5014410;28;20265;-75
2022/11/24 04:22:36;;;;;;;7.93;5.68;;;18.70;75.50;;;19.79;40.44;97874.16;5028024;28;20046;-74
2022/11/24 04:25:03;;;;;;;7.93;5.78;;;18.80;75.70;;;19.78;40.60;97871.78;5012339;28;20042;-74
2022/11/24 04:27:29;;;;;;;6.90;5.78;;;18.70;75.50;;;19.76;40.48;97874.09;5027439;28;20414;-75
2022/11/24 04:29:55;;;;;;;7.55;6.32;;;18.70;75.50;;;19.70;40.48;97871.59;5026516;28;20129;-75
2022/11/24 04:32:21;;;;;;;6.43;5.50;;;18.70;75.40;;;19.71;40.51;97878.69;5026977;28;20046;-76
2022/11/24 04:34:47;;;;;;;7.05;5.57;;;18.70;75.30;;;19.75;40.37;97872.50;5011397;28;20051;-75
2022/11/24 04:37:13;;;;;;;9.23;6.53;;;18.60;75.20;;;19.72;40.40;97876.75;5026557;28;20049;-76
2022/11/24 04:39:40;;;;;;;9.85;6.60;;;18.70;75.30;;;19.76;40.46;97882.34;5009315;28;20048;-76
2022/11/24 04:42:05;;;;;;;6.25;4.68;;;18.70;75.40;;;19.74;40.42;97882.69;5005632;28;20034;-76
2022/11/24 04:44:32;;;;;;;8.75;6.20;;;18.70;75.20;;;19.74;40.51;97882.69;5024168;28;20037;-76
2022/11/24 04:46:59;;;;;;;8.25;5.82;;;18.70;75.00;;;19.72;40.28;97885.03;5010979;28;20052;-76
2022/11/24 04:49:26;;;;;;;8.52;5.80;;;18.70;75.00;;;19.70;40.28;97890.88;5024071;28;20065;-75
2022/11/24 04:51:52;;;;;;;7.25;5.78;;;18.70;74.90;;;19.69;40.25;97889.28;5027909;28;20050;-75
2022/11/24 04:54:18;;;;;;;8.50;5.43;;;18.70;75.00;;;19.71;40.40;97895.19;5023966;28;20037;-75
2022/11/24 04:56:44;;;;;;;9.55;5.82;;;18.70;75.20;;;19.72;40.55;97890.53;5010052;28;20067;-75
2022/11/24 04:59:13;;;;;;;8.75;6.32;;;18.70;75.20;;;19.69;40.54;97900.28;5022888;28;20042;-75
2022/11/24 05:01:41;;;;;;;7.72;5.55;;;18.70;75.00;;;19.68;40.23;97904.19;5028837;28;20049;-75
2022/11/24 05:04:13;;;;;;;6.55;5.30;;;18.70;74.80;;;19.67;40.21;97901.78;5025034;28;20044;-75
2022/11/24 05:06:39;;;;;;;;;;;18.70;74.80;;;19.68;39.99;97903.38;5028070;28;20058;-76
2022/11/24 05:09:06;;;;;;;7.13;5.65;;;18.70;74.80;;;19.68;40.42;97909.69;5024677;28;19972;-75
2022/11/24 05:11:32;;;;;;;8.93;6.25;;;18.70;74.90;;;19.67;40.35;97912.81;5008805;28;20048;-75
2022/11/24 05:13:58;;;;;;;6.38;5.78;;;18.70;75.00;;;19.64;40.26;97907.94;4996034;28;20041;-75
2022/11/24 05:16:24;;;;;;;8.75;5.38;;;18.70;74.90;;;19.64;40.11;97907.94;5012393;28;20069;-75
2022/11/24 05:18:51;;;;;;;6.28;5.00;;;18.70;74.80;;;19.61;40.21;97909.47;5012231;28;20106;-75
2022/11/24 05:21:17;;;;;;;7.03;5.35;;;18.60;74.70;;;19.63;40.41;97911.88;5027867;28;20034;-75
2022/11/24 05:23:43;;;;;;;8.02;5.95;;;18.70;74.70;;;19.61;40.23;97909.47;5012254;28;20128;-75
2022/11/24 05:26:09;;;;;;;7.40;5.95;;;18.70;74.70;;;19.61;40.23;97912.22;4994026;28;20049;-75
2022/11/24 05:28:35;;;;;;;6.00;5.18;;;18.70;74.80;;;19.61;40.43;97917.72;4996345;28;20037;-75
2022/11/24 05:31:02;;;;;;;8.00;5.50;;;18.70;74.90;;;19.61;40.38;97912.22;4996270;28;20509;-75
2022/11/24 05:33:28;;;;;;;7.65;6.03;;;18.70;74.50;;;19.58;40.08;97912.94;5012315;28;20388;-75
2022/11/24 05:35:58;;;;;;;8.25;5.93;;;18.70;74.40;;;19.61;40.13;97916.91;5011071;28;20128;-75
2022/11/24 05:38:25;;;;;;;7.75;5.70;;;18.70;74.30;;;19.61;40.05;97914.16;5023262;28;20042;-75
2022/11/24 05:40:51;;;;;;;9.02;5.63;;;18.70;74.30;;;19.59;40.21;97919.22;5012764;28;20038;-74
2022/11/24 05:43:17;;;;;;;7.47;5.32;;;18.70;74.50;;;19.60;40.14;97918.09;5027523;28;20083;-75
2022/11/24 05:45:44;;;;;;;7.13;5.07;;;18.70;74.70;;;19.56;40.08;97922.69;5026166;28;20040;-75
2022/11/24 05:48:13;;;;;;;10.77;6.55;;;18.70;74.50;;;19.59;40.06;97927.47;5027939;28;20045;-75
2022/11/24 05:50:40;;;;;;;8.48;5.45;;;18.70;74.30;;;19.57;39.99;97938.84;5027300;28;20389;-75
2022/11/24 05:53:08;;;;;;;8.43;5.53;;;18.70;74.30;;;19.55;39.92;97935.66;5028377;28;20073;-75
2022/11/24 05:55:35;;;;;;;6.28;5.30;;;18.70;74.30;;;19.55;39.97;97940.34;5031271;28;20068;-75
2022/11/24 05:58:06;;;;;;;8.38;6.38;;;18.70;74.20;;;19.55;40.08;97941.16;5027163;28;20048;-75
2022/11/24 06:00:33;;;;;;;7.97;5.93;;;18.70;74.10;;;19.53;40.08;97944.25;5012691;28;20473;-75
2022/11/24 06:03:02;;;;;;;9.80;5.10;;;18.70;74.00;;;19.53;40.14;97946.19;5025273;28;20124;-75
2022/11/24 06:05:28;;;;;;;10.20;6.05;;;18.70;74.20;;;19.55;40.20;97948.63;5011695;28;20073;-75
2022/11/24 06:07:54;;;;;;;8.48;5.97;;;18.70;74.30;;;19.50;40.23;97947.72;5010968;28;20037;-74
2022/11/24 06:10:22;;;;;;;6.13;5.00;;;18.70;74.30;;;19.53;40.06;97954.44;5027256;28;20045;-75
2022/11/24 06:12:48;;;;;;;6.63;5.45;;;18.70;74.10;;;19.51;40.16;97956.75;5009865;28;20620;-76
2022/11/24 06:15:14;;;;;;;7.13;5.80;;;18.70;74.00;;;19.50;40.12;97960.66;5012988;28;20041;-74
2022/11/24 06:17:40;;;;;;;6.05;5.30;;;18.70;74.00;;;19.51;40.05;97954.00;5026376;28;20523;-76
2022/11/24 06:20:08;;;;;;;8.57;5.78;;;18.70;73.90;;;19.52;40.31;97959.16;5009591;28;20447;-76
2022/11/24 06:22:34;;;;;;;6.95;5.40;;;18.70;74.30;;;19.51;40.46;97959.50;5029802;28;20041;-76
2022/11/24 06:25:00;;;;;;;8.40;5.95;;;18.70;74.50;;;19.49;40.28;97959.88;5026558;28;20052;-76
2022/11/24 06:27:26;;;;;;;7.03;5.97;;;18.70;74.40;;;19.49;40.15;97961.84;5009985;28;20044;-76
2022/11/24 06:29:53;;;;;;;8.93;5.72;;;18.70;74.20;;;19.46;40.38;97968.84;5030584;28;20053;-76
2022/11/24 06:32:19;;;;;;;8.70;6.30;;;18.70;74.20;;;19.48;40.36;97968.47;5030375;28;20042;-76
2022/11/24 06:34:45;;;;;;;8.93;6.05;;;18.70;74.20;;;19.47;40.56;97969.63;5025031;28;20045;-76
2022/11/24 06:37:11;;;;;;;7.32;5.20;;;18.70;74.40;;;19.46;40.38;97965.25;5026406;28;20540;-76
2022/11/24 06:39:37;;;;;;;8.10;5.63;;;18.70;74.40;;;19.49;40.58;97967.34;5008630;28;20119;-76
2022/11/24 06:42:04;;;;;;;7.10;5.32;;;18.70;74.60;;;19.47;40.40;97964.91;5008856;28;20037;-75
2022/11/24 06:44:30;;;;;;;8.63;6.50;;;18.80;74.30;;;19.44;40.35;97976.63;5041690;28;20323;-75
2022/11/24 06:46:56;;;;;;;8.55;6.10;;;18.80;74.20;;;19.44;40.20;97981.34;5026492;28;20111;-75
2022/11/24 06:49:23;;;;;;;6.63;5.28;;;18.80;74.00;;;19.44;40.31;97979.38;5024591;28;20046;-75
2022/11/24 06:51:49;;;;;;;9.95;5.82;;;18.70;74.00;;;19.46;40.40;97984.50;5020241;28;20049;-75
2022/11/24 06:54:17;;;;;;;8.52;5.85;;;18.70;74.40;;;19.45;40.71;97983.72;5023593;28;20121;-75
2022/11/24 06:56:43;;;;;;;7.20;5.72;;;18.70;74.40;;;19.45;40.54;97980.19;5022983;28;20041;-75
2022/11/24 06:59:18;;;;;;;7.05;5.82;;;18.70;74.30;;;19.45;40.21;97988.44;5021845;28;20125;-75
2022/11/24 07:01:44;;;;;;;9.10;5.63;;;18.80;74.10;;;19.41;40.35;97982.03;5021370;28;20073;-75
2022/11/24 07:04:10;;;;;;;7.90;5.45;;;18.70;73.90;;;19.42;40.43;97983.63;5006210;28;20038;-75
2022/11/24 07:06:36;;;;;;;9.98;6.88;;;18.70;74.00;;;19.42;40.26;97984.44;5018535;28;20581;-75
2022/11/24 07:09:04;;;;;;;7.15;5.05;;;18.70;74.80;;;19.42;40.52;97994.63;5023013;28;20485;-75
2022/11/24 07:11:30;;;;;;;7.88;5.32;;;18.70;74.30;;;19.41;40.44;97995.78;5004780;28;20042;-75
2022/11/24 07:13:57;;;;;;;8.95;5.03;;;18.70;74.40;;;19.43;40.45;97996.22;5022672;28;20050;-75
2022/11/24 07:16:24;;;;;;;9.02;5.55;;;18.70;74.30;;;19.41;40.37;97999.34;5011467;28;20041;-75
2022/11/24 07:18:51;;;;;;;7.90;6.30;;;18.70;74.30;;;19.38;40.36;98000.03;4994270;28;20041;-75
2022/11/24 07:21:18;;;;;;;8.43;6.10;;;18.70;74.20;;;19.41;40.31;98009.53;5023924;28;20094;-75
2022/11/24 07:23:50;;;;;;;9.90;5.57;;;18.70;74.00;;;19.40;40.56;98010.69;5019431;28;20065;-75
2022/11/24 07:26:17;;;;;;;7.50;5.55;;;18.70;74.20;;;19.38;40.77;98005.53;5022004;28;20052;-75
2022/11/24 07:28:43;;;;;;;6.65;5.22;;;18.70;74.40;;;19.36;40.36;98005.09;4993726;28;20496;-75
2022/11/24 07:31:12;;;;;;;10.38;6.30;;;18.70;74.40;;;19.37;40.49;98003.16;5007879;28;20049;-75
2022/11/24 07:33:38;;;;;;;6.45;5.43;;;18.70;74.40;;;19.37;40.46;98005.91;5009530;28;20128;-75
2022/11/24 07:36:05;;;;;;;8.25;5.55;;;18.70;74.30;;;19.37;40.30;98006.69;5043624;28;20049;-75
2022/11/24 07:38:31;;;;;;;6.95;5.38;;;18.60;74.10;;;19.34;40.36;98003.84;5041194;28;20037;-75
2022/11/24 07:41:06;;;;;;;6.78;5.35;;;18.70;74.10;;;19.32;40.33;98001.44;5009107;28;20056;-75
2022/11/24 07:43:33;;;;;;;10.15;6.10;;;18.70;74.30;;;19.32;40.49;98006.16;4994571;28;20133;-75
2022/11/24 07:45:59;;;;;;;7.85;5.63;;;18.60;74.30;;;19.27;40.69;98005.22;5008351;28;20129;-75
2022/11/24 07:48:28;;;;;;;7.55;5.68;;;18.60;74.30;;;19.32;40.32;98011.66;5024999;28;20041;-75
2022/11/24 07:50:53;;;;;;;8.60;5.38;;;18.70;74.20;;;19.30;40.75;98006.47;5023873;28;20049;-75
2022/11/24 07:53:22;;;;;;;8.98;6.05;;;18.70;74.20;;;19.31;40.29;98005.34;5012088;28;20051;-75
2022/11/24 07:55:53;;;;;;;9.38;6.45;;;18.70;74.10;;;19.30;40.56;98009.22;5025557;28;20159;-75
2022/11/24 07:58:20;;;;;;;8.85;5.97;;;18.70;74.20;;;19.27;40.75;98013.47;5009838;28;20041;-75
2022/11/24 08:00:47;;;;;;;9.70;6.15;;;18.60;74.30;;;19.30;40.72;98018.28;4993322;28;20116;-75
2022/11/24 08:03:13;;;;;;;9.48;6.57;;;18.60;74.60;;;19.28;40.51;98012.34;5009608;28;20042;-75
2022/11/24 08:05:39;;;;;;;9.40;5.72;;;18.60;74.40;;;19.28;40.43;98012.34;5024778;28;20052;-75
2022/11/24 08:08:05;;;;;;;9.25;5.82;;;18.60;74.30;;;19.30;40.43;98020.22;4993857;28;20049;-75
2022/11/24 08:10:31;;;;;;;8.57;6.30;;;18.60;74.10;;;19.27;40.27;98024.47;5023937;28;20045;-75
2022/11/24 08:13:01;;;;;;;9.48;5.93;;;18.60;74.00;;;19.29;40.61;98027.69;5010041;28;20041;-75
2022/11/24 08:15:27;;;;;;;9.82;6.30;;;18.60;74.10;;;19.28;40.50;98028.84;5011810;28;20037;-75
2022/11/24 08:17:53;;;;;;;9.35;6.68;;;18.60;74.30;;;19.26;40.43;98028.41;5010276;28;20048;-75
2022/11/24 08:20:19;;;;;;;11.43;6.63;;;18.60;74.20;;;19.25;40.57;98035.03;5025201;28;20421;-75
2022/11/24 08:22:45;;;;;;;9.13;6.35;;;18.60;74.10;;;19.28;40.08;98031.59;5009015;28;20444;-75
2022/11/24 08:25:13;;;;;;;8.38;6.22;;;18.60;74.10;;;19.24;40.57;98033.44;5025174;28;20045;-75
2022/11/24 08:27:39;;;;;;;8.68;6.57;;;18.60;74.10;;;19.23;40.47;98036.53;5022638;28;20030;-75
2022/11/24 08:30:06;;;;;;;7.25;5.53;;;18.60;74.10;;;19.24;40.42;98038.94;5007394;28;20045;-75
2022/11/24 08:32:33;;;;;;;6.93;6.00;;;18.50;74.30;;;19.24;40.43;98038.94;5006946;28;20477;-75
2022/11/24 08:34:59;;;;;;;8.80;6.40;;;18.50;74.40;;;19.23;40.47;98034.59;5009785;28;20098;-76
2022/11/24 08:37:26;;;;;;;8.07;6.25;;;18.60;74.30;;;19.22;40.40;98035.72;5021851;28;20042;-75
2022/11/24 08:39:52;;;;;;;6.88;5.60;;;18.60;74.10;;;19.24;40.45;98038.13;5006515;28;20052;-76
2022/11/24 08:42:18;;;;;;;5.65;5.05;;;18.50;74.00;;;19.24;40.48;98040.88;5024188;28;20048;-75
2022/11/24 08:44:44;;;;;;;7.15;5.65;;;18.60;74.10;;;19.23;40.54;98042.03;5022230;28;20041;-75
2022/11/24 08:47:11;;;;;;;8.40;4.97;;;18.60;74.10;;;19.24;40.28;98043.63;5007245;28;20051;-75
2022/11/24 08:49:37;;;;;;;8.82;6.82;;;18.60;74.10;;;19.23;40.63;98047.53;5009636;28;20530;-75
2022/11/24 08:52:03;;;;;;;8.75;5.65;;;18.60;74.30;;;19.20;40.51;98054.53;5025342;28;20382;-75
2022/11/24 08:54:29;;;;;;;8.00;6.18;;;18.60;74.20;;;19.23;40.51;98051.09;5026206;28;20037;-75
2022/11/24 08:56:55;;;;;;;10.43;5.43;;;18.60;74.00;;;19.24;40.52;98063.69;5008373;28;20099;-75
2022/11/24 08:59:21;;;;;;;6.60;5.55;;;18.60;74.00;;;19.23;40.42;98059.34;5008611;28;20045;-76
2022/11/24 09:01:48;;;;;;;7.60;5.30;;;18.60;74.00;;;19.24;40.52;98060.13;5020614;28;20080;-76
2022/11/24 09:04:14;;;;;;;8.50;5.32;;;18.60;74.10;;;19.23;40.63;98051.09;5008001;28;20034;-75
2022/11/24 09:06:41;;;;;;;9.05;6.05;;;18.60;74.10;;;19.22;40.46;98052.22;5026064;28;20052;-75
2022/11/24 09:09:08;;;;;;;9.38;6.80;;;18.60;74.20;;;19.20;40.50;98051.78;5026081;28;20052;-75
2022/11/24 09:11:35;;;;;;;8.00;5.32;;;18.60;74.00;;;19.16;40.52;98059.13;5022405;28;20049;-75
2022/11/24 09:14:01;;;;;;;7.93;5.88;;;18.60;73.80;;;19.21;40.37;98060.81;5007782;28;20064;-75
2022/11/24 09:16:28;;;;;;;8.55;5.88;;;18.60;73.80;;;19.20;40.50;98059.22;4992690;28;20511;-75
2022/11/24 09:18:58;;;;;;;7.70;5.72;;;18.60;73.90;;;19.20;40.58;98060.00;5007461;28;20045;-75
2022/11/24 09:21:25;;;;;;;8.20;6.47;;;18.60;74.10;;;19.18;40.69;98059.56;5024160;28;20115;-75
2022/11/24 09:23:52;;;;;;;9.90;6.20;;;18.60;74.10;;;19.17;40.53;98057.97;5024792;28;20053;-75
2022/11/24 09:26:37;;;;;;;9.10;5.60;;;18.50;73.90;;;19.13;40.42;98054.31;5022864;28;20102;-75
2022/11/24 09:29:04;;;;;;;9.27;6.53;;;18.60;73.90;;;19.16;40.64;98063.81;5023359;28;20116;-75
2022/11/24 09:31:33;;;;;;;8.85;6.28;;;18.60;73.90;;;19.17;40.47;98059.94;4992360;28;20041;-75
2022/11/24 09:33:59;;;;;;;6.68;5.68;;;18.50;73.80;;;19.17;40.41;98059.94;5023271;28;20072;-75
2022/11/24 09:36:27;;;;;;;8.52;5.72;;;18.50;73.90;;;19.19;40.52;98054.88;5008216;28;20041;-75
2022/11/24 09:38:53;;;;;;;9.90;5.75;;;18.50;74.00;;;19.14;40.49;98053.19;4992008;28;20405;-75
2022/11/24 09:42:30;;;;;;;8.82;5.53;;;18.60;74.10;;;19.19;40.48;98063.13;5023595;28;20784;-75
2022/11/24 09:45:25;;;;;;;7.05;5.70;;;18.60;73.80;;;19.16;40.34;98059.13;5010231;28;20053;-75
2022/11/24 09:48:06;;;;;;;8.45;6.47;;;18.60;73.70;;;19.16;40.46;98059.13;5023813;28;20053;-75
2022/11/24 09:50:38;;;;;;;6.53;5.32;;;18.60;73.70;;;19.16;40.40;98059.13;4976511;28;20067;-75
2022/11/24 09:53:04;;;;;;;5.55;4.88;;;18.50;73.80;;;19.18;40.42;98062.31;5025206;28;20049;-75
2022/11/24 09:55:35;;;;;;;8.85;6.25;;;18.50;74.10;;;19.18;40.35;98056.81;5023817;28;20603;-75
2022/11/24 09:58:26;;;;;;;7.18;4.95;;;18.60;74.00;;;19.13;40.43;98059.81;5022848;28;20444;-75
2022/11/24 10:00:52;;;;;;;8.70;5.75;;;18.60;73.80;;;19.17;40.32;98057.97;5027309;28;20405;-75
2022/11/24 10:03:34;;;;;;;9.50;6.53;;;18.60;73.70;;;19.18;40.26;98061.50;5021913;28;20052;-75
2022/11/24 10:06:08;;;;;;;8.43;6.13;;;18.60;73.50;;;19.17;40.28;98063.47;5024746;28;20057;-75
2022/11/24 10:08:56;;;;;;;9.25;6.50;;;18.60;73.60;;;19.19;40.37;98058.44;5021871;28;20041;-75
2022/11/24 10:12:11;;;;;;;8.38;5.45;;;18.50;73.90;;;19.16;40.54;98058.31;5016623;28;20251;-75
2022/11/24 10:15:24;;;;;;;7.93;5.88;;;18.50;73.90;;;19.16;40.41;98059.13;5024927;28;20099;-75
2022/11/24 10:18:18;;;;;;;9.50;6.38;;;18.60;73.80;;;19.18;40.45;98062.31;5025097;28;20053;-75
2022/11/24 10:21:08;;;;;;;7.60;5.93;;;18.60;73.30;;;19.15;40.41;98064.97;5037961;28;20485;-75
2022/11/24 10:24:15;;;;;;;8.40;5.63;;;18.60;73.40;;;19.16;40.42;98056.38;5029176;28;20037;-75